sensor_id;sensor_type;location;lat;lon;timestamp;temperature;humidity
67974;DHT22;54756;51.140;6.952;2022-08-21T00:01:14;15.00;44.60
67974;DHT22;54756;51.140;6.952;2022-08-21T00:03:16;15.00;45.50
67974;DHT22;54756;51.140;6.952;2022-08-21T00:05:18;14.90;45.40
67974;DHT22;54756;51.140;6.952;2022-08-21T00:07:19;14.90;45.60
67974;DHT22;54756;51.140;6.952;2022-08-21T00:09:20;14.90;45.90
67974;DHT22;54756;51.140;6.952;2022-08-21T00:11:20;14.80;46.20
67974;DHT22;54756;51.140;6.952;2022-08-21T00:13:21;14.80;46.40
67974;DHT22;54756;51.140;6.952;2022-08-21T00:15:26;14.80;47.10
67974;DHT22;54756;51.140;6.952;2022-08-21T00:17:27;14.80;47.80
67974;DHT22;54756;51.140;6.952;2022-08-21T00:19:28;14.70;47.70
67974;DHT22;54756;51.140;6.952;2022-08-21T00:21:28;14.80;47.50
67974;DHT22;54756;51.140;6.952;2022-08-21T00:23:29;14.70;48.30
67974;DHT22;54756;51.140;6.952;2022-08-21T00:25:30;14.70;48.30
67974;DHT22;54756;51.140;6.952;2022-08-21T00:27:32;14.70;48.80
67974;DHT22;54756;51.140;6.952;2022-08-21T00:29:32;14.70;48.80
67974;DHT22;54756;51.140;6.952;2022-08-21T00:31:33;14.70;49.50
67974;DHT22;54756;51.140;6.952;2022-08-21T00:33:34;14.70;49.40
67974;DHT22;54756;51.140;6.952;2022-08-21T00:35:38;14.70;49.30
67974;DHT22;54756;51.140;6.952;2022-08-21T00:37:40;14.70;49.00
67974;DHT22;54756;51.140;6.952;2022-08-21T00:39:41;14.70;49.30
67974;DHT22;54756;51.140;6.952;2022-08-21T00:41:42;14.60;48.90
67974;DHT22;54756;51.140;6.952;2022-08-21T00:43:43;14.60;49.30
67974;DHT22;54756;51.140;6.952;2022-08-21T00:45:44;14.50;49.40
67974;DHT22;54756;51.140;6.952;2022-08-21T00:47:45;14.50;49.90
67974;DHT22;54756;51.140;6.952;2022-08-21T00:49:46;14.50;51.20
67974;DHT22;54756;51.140;6.952;2022-08-21T00:51:50;14.50;52.50
67974;DHT22;54756;51.140;6.952;2022-08-21T00:53:56;14.50;52.40
67974;DHT22;54756;51.140;6.952;2022-08-21T00:55:58;14.40;51.30
67974;DHT22;54756;51.140;6.952;2022-08-21T00:58:01;14.40;52.30
67974;DHT22;54756;51.140;6.952;2022-08-21T01:00:06;14.40;53.40
67974;DHT22;54756;51.140;6.952;2022-08-21T01:02:08;14.40;53.10
67974;DHT22;54756;51.140;6.952;2022-08-21T01:04:11;14.30;52.40
67974;DHT22;54756;51.140;6.952;2022-08-21T01:06:12;14.30;53.20
67974;DHT22;54756;51.140;6.952;2022-08-21T01:08:15;14.30;54.40
67974;DHT22;54756;51.140;6.952;2022-08-21T01:10:17;14.30;54.40
67974;DHT22;54756;51.140;6.952;2022-08-21T01:12:18;14.30;54.10
67974;DHT22;54756;51.140;6.952;2022-08-21T01:14:19;14.30;53.20
67974;DHT22;54756;51.140;6.952;2022-08-21T01:16:21;14.30;53.50
67974;DHT22;54756;51.140;6.952;2022-08-21T01:18:23;14.40;55.20
67974;DHT22;54756;51.140;6.952;2022-08-21T01:20:24;14.40;55.70
67974;DHT22;54756;51.140;6.952;2022-08-21T01:22:25;14.30;55.10
67974;DHT22;54756;51.140;6.952;2022-08-21T01:24:26;14.30;55.90
67974;DHT22;54756;51.140;6.952;2022-08-21T01:26:30;14.40;55.80
67974;DHT22;54756;51.140;6.952;2022-08-21T01:28:36;14.40;57.30
67974;DHT22;54756;51.140;6.952;2022-08-21T01:30:39;14.40;56.60
67974;DHT22;54756;51.140;6.952;2022-08-21T01:32:40;14.40;58.70
67974;DHT22;54756;51.140;6.952;2022-08-21T01:34:44;14.40;59.70
67974;DHT22;54756;51.140;6.952;2022-08-21T01:36:46;14.50;60.40
67974;DHT22;54756;51.140;6.952;2022-08-21T01:38:48;14.50;59.50
67974;DHT22;54756;51.140;6.952;2022-08-21T01:40:49;14.50;57.70
67974;DHT22;54756;51.140;6.952;2022-08-21T01:42:50;14.50;57.00
67974;DHT22;54756;51.140;6.952;2022-08-21T01:44:51;14.40;57.00
67974;DHT22;54756;51.140;6.952;2022-08-21T01:46:53;14.40;56.70
67974;DHT22;54756;51.140;6.952;2022-08-21T01:48:54;14.40;56.50
67974;DHT22;54756;51.140;6.952;2022-08-21T01:50:54;14.30;55.60
67974;DHT22;54756;51.140;6.952;2022-08-21T01:52:55;14.30;55.00
67974;DHT22;54756;51.140;6.952;2022-08-21T01:54:56;14.20;54.80
67974;DHT22;54756;51.140;6.952;2022-08-21T01:56:58;14.20;54.90
67974;DHT22;54756;51.140;6.952;2022-08-21T01:59:00;14.10;55.10
67974;DHT22;54756;51.140;6.952;2022-08-21T02:01:01;14.10;55.30
67974;DHT22;54756;51.140;6.952;2022-08-21T02:03:02;14.00;55.60
67974;DHT22;54756;51.140;6.952;2022-08-21T02:05:05;14.00;55.90
67974;DHT22;54756;51.140;6.952;2022-08-21T02:07:05;14.00;56.40
67974;DHT22;54756;51.140;6.952;2022-08-21T02:09:09;13.90;56.40
67974;DHT22;54756;51.140;6.952;2022-08-21T02:11:10;13.90;56.90
67974;DHT22;54756;51.140;6.952;2022-08-21T02:13:11;13.90;56.90
67974;DHT22;54756;51.140;6.952;2022-08-21T02:15:12;13.80;57.00
67974;DHT22;54756;51.140;6.952;2022-08-21T02:17:12;13.80;57.40
67974;DHT22;54756;51.140;6.952;2022-08-21T02:19:15;13.80;57.70
67974;DHT22;54756;51.140;6.952;2022-08-21T02:21:16;13.70;57.90
67974;DHT22;54756;51.140;6.952;2022-08-21T02:23:17;13.70;58.30
67974;DHT22;54756;51.140;6.952;2022-08-21T02:25:18;13.70;61.80
67974;DHT22;54756;51.140;6.952;2022-08-21T02:27:19;13.70;61.90
67974;DHT22;54756;51.140;6.952;2022-08-21T02:29:20;13.70;61.40
67974;DHT22;54756;51.140;6.952;2022-08-21T02:31:21;13.70;63.10
67974;DHT22;54756;51.140;6.952;2022-08-21T02:33:22;13.70;63.80
67974;DHT22;54756;51.140;6.952;2022-08-21T02:35:23;13.70;65.60
67974;DHT22;54756;51.140;6.952;2022-08-21T02:37:24;13.80;65.30
67974;DHT22;54756;51.140;6.952;2022-08-21T02:39:25;13.80;67.00
67974;DHT22;54756;51.140;6.952;2022-08-21T02:41:25;13.80;65.60
67974;DHT22;54756;51.140;6.952;2022-08-21T02:43:27;13.90;64.60
67974;DHT22;54756;51.140;6.952;2022-08-21T02:45:28;13.90;64.50
67974;DHT22;54756;51.140;6.952;2022-08-21T02:47:29;13.90;64.40
67974;DHT22;54756;51.140;6.952;2022-08-21T02:49:30;13.90;64.50
67974;DHT22;54756;51.140;6.952;2022-08-21T02:51:30;13.90;63.80
67974;DHT22;54756;51.140;6.952;2022-08-21T02:53:31;13.90;62.40
67974;DHT22;54756;51.140;6.952;2022-08-21T02:55:35;13.90;61.80
67974;DHT22;54756;51.140;6.952;2022-08-21T02:57:36;13.90;63.30
67974;DHT22;54756;51.140;6.952;2022-08-21T02:59:37;13.90;61.90
67974;DHT22;54756;51.140;6.952;2022-08-21T03:01:38;13.80;61.00
67974;DHT22;54756;51.140;6.952;2022-08-21T03:03:42;13.80;61.30
67974;DHT22;54756;51.140;6.952;2022-08-21T03:05:43;13.80;61.10
67974;DHT22;54756;51.140;6.952;2022-08-21T03:07:45;13.90;61.10
67974;DHT22;54756;51.140;6.952;2022-08-21T03:09:46;13.90;61.30
67974;DHT22;54756;51.140;6.952;2022-08-21T03:11:47;13.90;61.10
67974;DHT22;54756;51.140;6.952;2022-08-21T03:13:48;14.00;60.90
67974;DHT22;54756;51.140;6.952;2022-08-21T03:15:49;14.00;60.10
67974;DHT22;54756;51.140;6.952;2022-08-21T03:17:50;13.90;59.60
67974;DHT22;54756;51.140;6.952;2022-08-21T03:19:51;13.90;59.40
67974;DHT22;54756;51.140;6.952;2022-08-21T03:21:52;13.80;59.40
67974;DHT22;54756;51.140;6.952;2022-08-21T03:23:52;13.80;59.50
67974;DHT22;54756;51.140;6.952;2022-08-21T03:25:54;13.80;59.50
67974;DHT22;54756;51.140;6.952;2022-08-21T03:27:55;13.70;59.60
67974;DHT22;54756;51.140;6.952;2022-08-21T03:29:56;13.70;59.70
67974;DHT22;54756;51.140;6.952;2022-08-21T03:31:57;13.60;59.90
67974;DHT22;54756;51.140;6.952;2022-08-21T03:33:58;13.60;60.00
67974;DHT22;54756;51.140;6.952;2022-08-21T03:36:03;13.50;59.90
67974;DHT22;54756;51.140;6.952;2022-08-21T03:38:04;13.50;60.10
67974;DHT22;54756;51.140;6.952;2022-08-21T03:40:06;13.50;60.20
67974;DHT22;54756;51.140;6.952;2022-08-21T03:42:08;13.50;60.70
67974;DHT22;54756;51.140;6.952;2022-08-21T03:44:09;13.40;60.60
67974;DHT22;54756;51.140;6.952;2022-08-21T03:46:10;13.40;60.60
67974;DHT22;54756;51.140;6.952;2022-08-21T03:48:11;13.40;60.60
67974;DHT22;54756;51.140;6.952;2022-08-21T03:50:11;13.30;60.50
67974;DHT22;54756;51.140;6.952;2022-08-21T03:52:12;13.30;60.90
67974;DHT22;54756;51.140;6.952;2022-08-21T03:54:13;13.30;61.30
67974;DHT22;54756;51.140;6.952;2022-08-21T03:56:14;13.20;61.40
67974;DHT22;54756;51.140;6.952;2022-08-21T03:58:19;13.20;61.50
67974;DHT22;54756;51.140;6.952;2022-08-21T04:00:21;13.20;61.60
67974;DHT22;54756;51.140;6.952;2022-08-21T04:02:22;13.20;61.60
67974;DHT22;54756;51.140;6.952;2022-08-21T04:04:23;13.10;61.70
67974;DHT22;54756;51.140;6.952;2022-08-21T04:06:25;13.10;62.00
67974;DHT22;54756;51.140;6.952;2022-08-21T04:08:26;13.10;62.40
67974;DHT22;54756;51.140;6.952;2022-08-21T04:10:29;13.00;63.00
67974;DHT22;54756;51.140;6.952;2022-08-21T04:12:30;13.00;63.20
67974;DHT22;54756;51.140;6.952;2022-08-21T04:14:31;13.00;63.90
67974;DHT22;54756;51.140;6.952;2022-08-21T04:16:32;13.00;63.90
67974;DHT22;54756;51.140;6.952;2022-08-21T04:18:32;13.00;64.10
67974;DHT22;54756;51.140;6.952;2022-08-21T04:20:34;13.00;64.20
67974;DHT22;54756;51.140;6.952;2022-08-21T04:22:35;13.00;64.50
67974;DHT22;54756;51.140;6.952;2022-08-21T04:24:36;13.00;64.60
67974;DHT22;54756;51.140;6.952;2022-08-21T04:26:38;13.00;64.40
67974;DHT22;54756;51.140;6.952;2022-08-21T04:28:39;13.00;64.40
67974;DHT22;54756;51.140;6.952;2022-08-21T04:30:40;13.00;64.80
67974;DHT22;54756;51.140;6.952;2022-08-21T04:32:49;13.00;64.80
67974;DHT22;54756;51.140;6.952;2022-08-21T04:34:50;13.00;64.80
67974;DHT22;54756;51.140;6.952;2022-08-21T04:36:51;13.00;64.80
67974;DHT22;54756;51.140;6.952;2022-08-21T04:38:51;13.00;64.80
67974;DHT22;54756;51.140;6.952;2022-08-21T04:40:52;13.00;65.20
67974;DHT22;54756;51.140;6.952;2022-08-21T04:43:00;13.00;65.20
67974;DHT22;54756;51.140;6.952;2022-08-21T04:45:01;13.00;65.20
67974;DHT22;54756;51.140;6.952;2022-08-21T04:47:02;13.00;65.60
67974;DHT22;54756;51.140;6.952;2022-08-21T04:49:17;13.00;65.80
67974;DHT22;54756;51.140;6.952;2022-08-21T04:51:24;13.10;66.70
67974;DHT22;54756;51.140;6.952;2022-08-21T04:55:49;13.20;65.50
67974;DHT22;54756;51.140;6.952;2022-08-21T04:57:51;13.30;65.60
67974;DHT22;54756;51.140;6.952;2022-08-21T04:59:53;13.30;66.80
67974;DHT22;54756;51.140;6.952;2022-08-21T05:01:54;13.40;65.70
67974;DHT22;54756;51.140;6.952;2022-08-21T05:03:59;13.40;65.00
67974;DHT22;54756;51.140;6.952;2022-08-21T05:06:00;13.40;64.30
67974;DHT22;54756;51.140;6.952;2022-08-21T05:08:02;13.50;64.20
67974;DHT22;54756;51.140;6.952;2022-08-21T05:10:03;13.50;64.10
67974;DHT22;54756;51.140;6.952;2022-08-21T05:12:04;13.50;64.20
67974;DHT22;54756;51.140;6.952;2022-08-21T05:14:05;13.50;64.20
67974;DHT22;54756;51.140;6.952;2022-08-21T05:16:06;13.50;64.70
67974;DHT22;54756;51.140;6.952;2022-08-21T05:18:07;13.60;65.90
67974;DHT22;54756;51.140;6.952;2022-08-21T11:35:55;27.90;1.00
67974;DHT22;54756;51.140;6.952;2022-08-21T11:41:20;28.10;1.00
67974;DHT22;54756;51.140;6.952;2022-08-21T11:45:49;27.50;1.00
67974;DHT22;54756;51.140;6.952;2022-08-21T11:48:32;27.50;1.00
67974;DHT22;54756;51.140;6.952;2022-08-21T11:50:24;27.70;1.00
67974;DHT22;54756;51.140;6.952;2022-08-21T11:52:59;27.90;1.00
67974;DHT22;54756;51.140;6.952;2022-08-21T11:55:23;27.70;1.00
67974;DHT22;54756;51.140;6.952;2022-08-21T12:02:53;28.00;1.00
67974;DHT22;54756;51.140;6.952;2022-08-21T12:05:00;28.20;1.00
67974;DHT22;54756;51.140;6.952;2022-08-21T12:07:17;28.30;1.00
67974;DHT22;54756;51.140;6.952;2022-08-21T12:09:34;28.40;1.00
67974;DHT22;54756;51.140;6.952;2022-08-21T12:12:00;28.50;1.00
67974;DHT22;54756;51.140;6.952;2022-08-21T12:16:28;28.90;1.00
67974;DHT22;54756;51.140;6.952;2022-08-21T12:18:31;29.40;1.00
67974;DHT22;54756;51.140;6.952;2022-08-21T12:21:02;29.80;1.00
67974;DHT22;54756;51.140;6.952;2022-08-21T12:26:31;29.70;1.00
67974;DHT22;54756;51.140;6.952;2022-08-21T12:34:34;29.60;1.00
67974;DHT22;54756;51.140;6.952;2022-08-21T12:37:00;30.10;1.00
67974;DHT22;54756;51.140;6.952;2022-08-21T12:39:27;30.20;1.00
67974;DHT22;54756;51.140;6.952;2022-08-21T12:42:05;30.20;1.00
67974;DHT22;54756;51.140;6.952;2022-08-21T12:44:14;30.10;1.00
67974;DHT22;54756;51.140;6.952;2022-08-21T12:46:18;30.00;1.00
67974;DHT22;54756;51.140;6.952;2022-08-21T12:48:41;29.90;1.00
67974;DHT22;54756;51.140;6.952;2022-08-21T12:50:52;29.80;1.00
67974;DHT22;54756;51.140;6.952;2022-08-21T12:55:13;29.80;1.00
67974;DHT22;54756;51.140;6.952;2022-08-21T12:57:27;29.90;1.00
67974;DHT22;54756;51.140;6.952;2022-08-21T12:59:30;29.80;1.00
67974;DHT22;54756;51.140;6.952;2022-08-21T13:01:50;29.90;1.00
67974;DHT22;54756;51.140;6.952;2022-08-21T13:04:04;30.10;1.00
67974;DHT22;54756;51.140;6.952;2022-08-21T13:06:14;30.30;1.00
67974;DHT22;54756;51.140;6.952;2022-08-21T13:08:18;30.50;1.00
67974;DHT22;54756;51.140;6.952;2022-08-21T13:10:28;30.70;1.00
67974;DHT22;54756;51.140;6.952;2022-08-21T13:12:31;30.80;1.00
67974;DHT22;54756;51.140;6.952;2022-08-21T13:14:38;30.50;1.00
67974;DHT22;54756;51.140;6.952;2022-08-21T13:16:39;30.30;1.00
67974;DHT22;54756;51.140;6.952;2022-08-21T13:18:54;30.20;1.00
67974;DHT22;54756;51.140;6.952;2022-08-21T13:21:19;30.00;1.00
67974;DHT22;54756;51.140;6.952;2022-08-21T13:23:30;30.20;1.00
67974;DHT22;54756;51.140;6.952;2022-08-21T13:25:36;30.50;1.00
67974;DHT22;54756;51.140;6.952;2022-08-21T13:27:38;30.70;1.00
67974;DHT22;54756;51.140;6.952;2022-08-21T13:29:39;30.60;1.00
67974;DHT22;54756;51.140;6.952;2022-08-21T13:31:41;30.70;1.00
67974;DHT22;54756;51.140;6.952;2022-08-21T13:33:44;30.80;1.00
